createdAt,value
2018-05-08T00:00:42.082Z,96736.05
2018-05-08T00:03:09.515Z,96736.80
2018-05-08T00:05:36.962Z,96736.11
2018-05-08T00:08:04.446Z,96736.25
2018-05-08T00:10:31.874Z,96733.04
2018-05-08T00:12:59.341Z,96734.47
2018-05-08T00:15:26.776Z,96732.91
2018-05-08T00:17:54.166Z,96733.63
2018-05-08T00:20:21.595Z,96733.92
2018-05-08T00:22:49.015Z,96731.97
2018-05-08T00:25:16.426Z,96733.27
2018-05-08T00:27:43.881Z,96729.16
2018-05-08T00:30:11.297Z,96737.45
2018-05-08T00:32:38.723Z,96729.02
2018-05-08T00:35:06.118Z,96730.81
2018-05-08T00:37:33.608Z,96731.09
2018-05-08T00:40:01.002Z,96729.48
2018-05-08T00:42:28.415Z,96734.58
2018-05-08T00:44:55.884Z,96729.09
2018-05-08T00:47:23.316Z,96728.19
2018-05-08T00:49:50.873Z,96727.32
2018-05-08T00:52:18.292Z,96731.42
2018-05-08T00:55:07.547Z,96724.75
2018-05-08T00:57:34.997Z,96733.98
2018-05-08T01:00:02.419Z,96731.37
2018-05-08T01:02:29.886Z,96731.41
2018-05-08T01:04:57.308Z,96732.03
2018-05-08T01:07:24.760Z,96737.38
2018-05-08T01:09:52.983Z,96733.86
2018-05-08T01:12:20.549Z,96737.00
2018-05-08T01:14:47.986Z,96736.75
2018-05-08T01:17:15.452Z,96730.21
2018-05-08T01:19:42.926Z,96731.01
2018-05-08T01:22:10.394Z,96729.22
2018-05-08T01:24:38.567Z,96726.55
2018-05-08T01:27:06.021Z,96717.25
2018-05-08T01:29:33.635Z,96714.45
2018-05-08T01:32:01.168Z,96715.98
2018-05-08T01:34:28.636Z,96714.17
2018-05-08T01:36:56.040Z,96710.11
2018-05-08T01:39:23.443Z,96705.23
2018-05-08T01:41:50.838Z,96710.16
2018-05-08T01:44:18.272Z,96703.30
2018-05-08T01:46:45.707Z,96701.70
2018-05-08T01:49:13.130Z,96699.23
2018-05-08T01:51:40.601Z,96691.10
2018-05-08T01:54:08.023Z,96693.89
2018-05-08T01:56:35.454Z,96691.75
2018-05-08T01:59:03.075Z,96691.56
2018-05-08T02:01:30.472Z,96690.85
2018-05-08T02:03:57.920Z,96696.73
2018-05-08T02:06:25.352Z,96696.13
2018-05-08T02:08:52.792Z,96710.09
2018-05-08T02:11:20.356Z,96709.37
2018-05-08T02:13:48.595Z,96709.81
2018-05-08T02:16:16.074Z,96704.47
2018-05-08T02:18:43.528Z,96708.63
2018-05-08T02:21:11.076Z,96711.20
2018-05-08T02:23:38.530Z,96711.28
2018-05-08T02:26:06.075Z,96703.39
2018-05-08T02:28:33.521Z,96701.02
2018-05-08T02:31:00.944Z,96699.67
2018-05-08T02:33:28.347Z,96704.75
2018-05-08T02:35:55.804Z,96704.20
2018-05-08T02:38:23.270Z,96699.14
2018-05-08T02:40:50.745Z,96699.02
2018-05-08T02:43:18.171Z,96693.64
2018-05-08T02:45:45.588Z,96696.64
2018-05-08T02:48:13.052Z,96699.23
2018-05-08T02:50:40.481Z,96699.27
2018-05-08T02:53:07.914Z,96688.68
2018-05-08T02:55:35.392Z,96688.33
2018-05-08T02:58:02.943Z,96684.94
2018-05-08T03:00:30.401Z,96680.06
2018-05-08T03:02:57.876Z,96686.31
2018-05-08T03:05:26.476Z,96684.17
2018-05-08T03:07:54.000Z,96692.02
2018-05-08T03:10:21.453Z,96690.96
2018-05-08T03:12:48.941Z,96696.72
2018-05-08T03:15:16.401Z,96699.83
2018-05-08T03:17:44.057Z,96696.96
2018-05-08T03:20:11.457Z,96693.64
2018-05-08T03:22:38.902Z,96697.67
2018-05-08T03:25:06.333Z,96696.20
2018-05-08T03:27:33.801Z,96692.94
2018-05-08T03:30:01.261Z,96687.94
2018-05-08T03:32:28.687Z,96695.30
2018-05-08T03:34:56.107Z,96700.95
2018-05-08T03:37:23.556Z,96695.46
2018-05-08T03:39:51.064Z,96694.48
2018-05-08T03:42:18.537Z,96690.25
2018-05-08T03:44:46.012Z,96688.97
2018-05-08T03:47:13.885Z,96686.47
2018-05-08T03:49:41.279Z,96681.19
2018-05-08T03:52:08.812Z,96681.06
2018-05-08T03:54:36.299Z,96676.83
2018-05-08T03:57:04.544Z,96675.09
2018-05-08T03:59:31.983Z,96682.24
2018-05-08T04:02:11.155Z,96677.09
2018-05-08T04:04:50.436Z,96675.41
2018-05-08T04:07:29.551Z,96677.72
2018-05-08T04:09:56.978Z,96673.14
2018-05-08T04:12:24.385Z,96685.47
2018-05-08T04:14:51.790Z,96677.47
2018-05-08T04:17:19.232Z,96679.30
2018-05-08T04:19:46.712Z,96685.75
2018-05-08T04:22:14.119Z,96678.03
2018-05-08T04:24:41.605Z,96681.80
2018-05-08T04:27:09.027Z,96678.24
2018-05-08T04:29:36.502Z,96677.70
2018-05-08T04:32:03.905Z,96675.75
2018-05-08T04:34:31.297Z,96675.25
2018-05-08T04:36:58.754Z,96673.73
2018-05-08T04:39:26.198Z,96679.43
2018-05-08T04:41:53.632Z,96678.52
2018-05-08T04:44:21.056Z,96676.78
2018-05-08T04:46:48.485Z,96684.50
2018-05-08T04:49:15.949Z,96686.80
2018-05-08T04:51:43.369Z,96677.95
2018-05-08T04:54:10.909Z,96679.41
2018-05-08T04:56:38.322Z,96683.53
2018-05-08T04:59:05.805Z,96680.92
2018-05-08T05:01:33.604Z,96683.44
2018-05-08T05:04:01.053Z,96686.69
2018-05-08T05:06:28.459Z,96684.52
2018-05-08T05:08:55.906Z,96686.91
2018-05-08T05:11:23.368Z,96680.19
2018-05-08T05:13:50.845Z,96682.89
2018-05-08T05:16:18.286Z,96681.42
2018-05-08T05:18:45.704Z,96678.92
2018-05-08T05:21:13.142Z,96682.03
2018-05-08T05:23:40.528Z,96685.16
2018-05-08T05:26:07.964Z,96692.00
2018-05-08T05:28:35.356Z,96686.59
2018-05-08T05:31:02.794Z,96684.61
2018-05-08T05:33:30.283Z,96684.75
2018-05-08T05:35:57.707Z,96681.55
2018-05-08T05:38:25.146Z,96686.66
2018-05-08T05:40:52.737Z,96686.45
2018-05-08T05:43:21.056Z,96689.74
2018-05-08T05:45:48.594Z,96685.90
2018-05-08T05:48:16.015Z,96682.25
2018-05-08T05:50:43.634Z,96677.19
2018-05-08T05:53:11.081Z,96674.02
2018-05-08T05:55:38.539Z,96671.98
2018-05-08T05:58:06.106Z,96675.67
2018-05-08T06:00:33.556Z,96672.47
2018-05-08T06:03:01.055Z,96673.81
2018-05-08T06:05:28.561Z,96670.70
2018-05-08T06:07:56.021Z,96669.75
2018-05-08T06:10:23.457Z,96663.86
2018-05-08T06:12:50.943Z,96665.47
2018-05-08T06:15:18.401Z,96668.30
2018-05-08T06:17:45.865Z,96666.98
2018-05-08T06:20:13.289Z,96665.14
2018-05-08T06:22:40.736Z,96669.76
2018-05-08T06:25:08.175Z,96672.95
2018-05-08T06:27:35.586Z,96671.22
2018-05-08T06:30:03.069Z,96673.97
2018-05-08T06:32:30.541Z,96675.98
2018-05-08T06:34:57.968Z,96671.67
2018-05-08T06:37:25.425Z,96667.52
2018-05-08T06:39:52.909Z,96666.67
2018-05-08T06:42:20.397Z,96665.72
2018-05-08T06:44:47.798Z,96663.28
2018-05-08T06:47:15.239Z,96659.92
2018-05-08T06:49:42.684Z,96663.76
2018-05-08T06:52:10.293Z,96660.52
2018-05-08T06:54:37.760Z,96659.30
2018-05-08T06:57:05.169Z,96650.03
2018-05-08T06:59:33.225Z,96653.28
2018-05-08T07:02:00.606Z,96644.80
2018-05-08T07:04:28.932Z,96652.53
2018-05-08T07:06:56.335Z,96646.25
2018-05-08T07:09:24.063Z,96648.46
2018-05-08T07:11:51.528Z,96638.53
2018-05-08T07:14:19.127Z,96645.80
2018-05-08T07:16:46.581Z,96647.37
2018-05-08T07:19:14.038Z,96643.32
2018-05-08T07:21:41.501Z,96647.05
2018-05-08T07:24:09.179Z,96649.12
2018-05-08T07:26:36.579Z,96645.20
2018-05-08T07:29:03.996Z,96641.67
2018-05-08T07:31:32.022Z,96636.74
2018-05-08T07:33:59.461Z,96637.05
2018-05-08T07:36:27.189Z,96637.28
2018-05-08T07:38:54.705Z,96637.18
2018-05-08T07:41:22.124Z,96639.32
2018-05-08T07:43:49.726Z,96632.66
2018-05-08T07:46:17.167Z,96625.58
2018-05-08T07:48:44.799Z,96625.55
2018-05-08T07:51:12.492Z,96622.86
2018-05-08T07:53:39.932Z,96619.09
2018-05-08T07:56:07.459Z,96617.37
2018-05-08T07:58:34.963Z,96613.66
2018-05-08T08:01:02.404Z,96607.91
2018-05-08T08:03:29.835Z,96599.81
2018-05-08T08:05:57.272Z,96599.08
2018-05-08T08:08:24.770Z,96597.59
2018-05-08T08:10:52.213Z,96589.86
2018-05-08T08:13:19.687Z,96591.80
2018-05-08T08:15:47.121Z,96587.40
2018-05-08T08:18:14.635Z,96583.32
2018-05-08T08:20:43.027Z,96583.76
2018-05-08T08:23:10.453Z,96580.06
2018-05-08T08:25:37.914Z,96573.27
2018-05-08T08:28:05.351Z,96574.27
2018-05-08T08:30:32.786Z,96566.20
2018-05-08T08:33:00.231Z,96568.59
2018-05-08T08:35:28.084Z,96573.59
2018-05-08T08:37:55.563Z,96564.79
2018-05-08T08:40:23.101Z,96567.27
2018-05-08T08:42:50.540Z,96568.70
2018-05-08T08:45:18.016Z,96561.32
2018-05-08T08:47:45.715Z,96555.61
2018-05-08T08:50:13.182Z,96558.20
2018-05-08T08:52:40.623Z,96559.42
2018-05-08T08:55:08.031Z,96557.46
2018-05-08T08:57:35.571Z,96560.84
2018-05-08T09:00:03.049Z,96557.41
2018-05-08T09:02:30.863Z,96559.95
2018-05-08T09:04:58.329Z,96560.22
2018-05-08T09:07:25.730Z,96554.35
2018-05-08T09:09:53.162Z,96560.31
2018-05-08T09:12:20.702Z,96553.44
2018-05-08T09:14:48.207Z,96553.58
2018-05-08T09:17:15.673Z,96538.55
2018-05-08T09:19:43.177Z,96539.91
2018-05-08T09:22:10.554Z,96538.58
2018-05-08T09:24:38.028Z,96540.59
2018-05-08T09:27:05.481Z,96531.95
2018-05-08T09:29:32.987Z,96538.96
2018-05-08T09:32:00.399Z,96532.37
2018-05-08T09:34:27.977Z,96526.66
2018-05-08T09:36:55.481Z,96518.30
2018-05-08T09:39:22.883Z,96513.97
2018-05-08T09:41:50.326Z,96510.80
2018-05-08T09:44:17.752Z,96516.55
2018-05-08T09:46:45.158Z,96507.12
2018-05-08T09:49:12.624Z,96501.80
2018-05-08T09:51:40.145Z,96501.02
2018-05-08T09:54:07.692Z,96496.52
2018-05-08T09:56:35.228Z,96497.28
2018-05-08T09:59:02.724Z,96492.66
2018-05-08T10:01:30.193Z,96487.59
2018-05-08T10:03:57.680Z,96488.73
2018-05-08T10:06:25.071Z,96482.47
2018-05-08T10:08:52.532Z,96477.94
2018-05-08T10:11:20.150Z,96477.53
2018-05-08T10:13:47.638Z,96465.41
2018-05-08T10:16:15.131Z,96467.00
2018-05-08T10:18:42.632Z,96456.81
2018-05-08T10:21:10.036Z,96450.17
2018-05-08T10:23:37.449Z,96451.33
2018-05-08T10:26:04.923Z,96441.00
2018-05-08T10:28:32.629Z,96429.44
2018-05-08T10:31:00.129Z,96438.66
2018-05-08T10:33:27.539Z,96425.26
2018-05-08T10:35:55.045Z,96422.85
2018-05-08T10:38:22.481Z,96411.89
2018-05-08T10:40:49.929Z,96420.53
2018-05-08T10:43:17.391Z,96410.31
2018-05-08T10:45:45.786Z,96404.02
2018-05-08T10:48:13.311Z,96408.70
2018-05-08T10:50:40.788Z,96400.59
2018-05-08T10:53:08.219Z,96401.16
2018-05-08T10:55:35.783Z,96402.51
2018-05-08T10:58:03.215Z,96403.89
2018-05-08T11:00:30.624Z,96401.05
2018-05-08T11:02:58.085Z,96397.67
2018-05-08T11:05:25.536Z,96394.84
2018-05-08T11:07:53.040Z,96382.82
2018-05-08T11:10:20.553Z,96385.70
2018-05-08T11:12:47.972Z,96379.20
2018-05-08T11:15:15.560Z,96374.95
2018-05-08T11:17:43.016Z,96370.95
2018-05-08T11:20:10.482Z,96369.86
2018-05-08T11:22:37.977Z,96372.15
2018-05-08T11:25:05.422Z,96369.44
2018-05-08T11:27:32.872Z,96371.69
2018-05-08T11:30:00.266Z,96367.42
2018-05-08T11:32:27.701Z,96358.31
2018-05-08T11:34:55.142Z,96360.98
2018-05-08T11:37:22.688Z,96353.16
2018-05-08T11:39:50.176Z,96354.20
2018-05-08T11:42:17.733Z,96356.53
2018-05-08T11:44:45.183Z,96343.28
2018-05-08T11:47:12.652Z,96346.92
2018-05-08T11:49:40.112Z,96345.38
2018-05-08T11:52:07.527Z,96347.31
2018-05-08T11:54:35.029Z,96335.95
2018-05-08T11:57:02.544Z,96337.03
2018-05-08T11:59:30.027Z,96333.27
2018-05-08T12:01:57.489Z,96321.38
2018-05-08T12:04:24.996Z,96325.33
2018-05-08T12:06:52.656Z,96320.72
2018-05-08T12:09:20.149Z,96316.41
2018-05-08T12:11:47.633Z,96308.99
2018-05-08T12:14:15.141Z,96303.41
2018-05-08T12:16:42.577Z,96304.95
2018-05-08T12:19:10.012Z,96298.64
2018-05-08T12:21:37.488Z,96293.75
2018-05-08T12:24:04.989Z,96298.05
2018-05-08T12:26:32.693Z,96291.23
2018-05-08T12:29:00.131Z,96291.73
2018-05-08T12:31:27.759Z,96286.12
2018-05-08T12:33:55.229Z,96276.66
2018-05-08T12:36:22.713Z,96283.86
2018-05-08T12:38:50.147Z,96278.18
2018-05-08T12:41:17.633Z,96284.84
2018-05-08T12:43:45.073Z,96280.69
2018-05-08T12:46:12.481Z,96271.83
2018-05-08T12:48:39.959Z,96281.50
2018-05-08T12:51:07.416Z,96275.45
2018-05-08T12:53:34.893Z,96277.70
2018-05-08T12:56:02.337Z,96272.18
2018-05-08T12:58:29.835Z,96270.80
2018-05-08T13:00:57.273Z,96275.69
2018-05-08T13:03:24.706Z,96272.20
2018-05-08T13:05:52.112Z,96273.23
2018-05-08T13:08:19.580Z,96268.42
2018-05-08T13:10:47.063Z,96260.49
2018-05-08T13:13:14.613Z,96261.77
2018-05-08T13:15:42.058Z,96252.98
2018-05-08T13:18:09.608Z,96248.70
2018-05-08T13:20:37.085Z,96243.31
2018-05-08T13:23:04.615Z,96242.36
2018-05-08T13:25:32.107Z,96239.34
2018-05-08T13:27:59.633Z,96234.89
2018-05-08T13:30:27.058Z,96236.28
2018-05-08T13:32:55.232Z,96237.07
2018-05-08T13:35:22.699Z,96243.72
2018-05-08T13:37:50.198Z,96235.98
2018-05-08T13:40:17.595Z,96228.92
2018-05-08T13:42:45.041Z,96234.21
2018-05-08T13:45:12.472Z,96228.16
2018-05-08T13:47:39.930Z,96227.50
2018-05-08T13:50:07.451Z,96226.41
2018-05-08T13:52:34.914Z,96224.58
2018-05-08T13:55:02.513Z,96231.93
2018-05-08T13:57:29.867Z,96227.77
2018-05-08T13:59:57.333Z,96225.87
2018-05-08T14:02:24.800Z,96221.52
2018-05-08T14:04:52.217Z,96221.48
2018-05-08T14:07:19.880Z,96216.91
2018-05-08T14:09:47.344Z,96220.03
2018-05-08T14:12:14.805Z,96219.42
2018-05-08T14:14:42.290Z,96217.03
2018-05-08T14:17:09.711Z,96209.93
2018-05-08T14:19:37.168Z,96211.02
2018-05-08T14:22:04.725Z,96214.48
2018-05-08T14:24:32.204Z,96211.58
2018-05-08T14:26:59.648Z,96216.38
2018-05-08T14:29:27.083Z,96218.36
2018-05-08T14:31:54.610Z,96214.78
2018-05-08T14:34:22.023Z,96210.27
2018-05-08T14:36:49.502Z,96210.84
2018-05-08T14:39:16.973Z,96200.30
2018-05-08T14:41:44.462Z,96198.22
2018-05-08T14:44:11.884Z,96197.23
2018-05-08T14:46:39.326Z,96189.69
2018-05-08T14:49:06.789Z,96187.61
2018-05-08T14:51:34.184Z,96180.45
2018-05-08T14:54:01.682Z,96188.91
2018-05-08T14:56:29.089Z,96190.70
2018-05-08T14:58:56.573Z,96187.02
2018-05-08T15:01:23.993Z,96185.70
2018-05-08T15:03:51.425Z,96181.87
2018-05-08T15:06:18.923Z,96180.55
2018-05-08T15:08:46.435Z,96176.45
2018-05-08T15:11:14.004Z,96169.55
2018-05-08T15:13:41.470Z,96171.40
2018-05-08T15:16:09.072Z,96173.03
2018-05-08T15:18:36.500Z,96173.55
2018-05-08T15:21:03.934Z,96176.96
2018-05-08T15:23:31.437Z,96173.76
2018-05-08T15:25:58.872Z,96178.52
2018-05-08T15:28:26.314Z,96181.47
2018-05-08T15:30:53.744Z,96190.44
2018-05-08T15:33:21.196Z,96201.19
2018-05-08T15:35:48.891Z,96190.67
2018-05-08T15:38:16.372Z,96191.60
2018-05-08T15:40:43.836Z,96188.92
2018-05-08T15:43:11.268Z,96191.06
2018-05-08T15:45:38.705Z,96182.74
2018-05-08T15:48:06.104Z,96193.23
2018-05-08T15:50:33.527Z,96195.61
2018-05-08T15:53:00.961Z,96193.02
2018-05-08T15:55:28.486Z,96194.88
2018-05-08T15:57:55.975Z,96200.66
2018-05-08T16:00:23.413Z,96199.00
2018-05-08T16:02:50.936Z,96205.70
2018-05-08T16:05:18.365Z,96198.08
2018-05-08T16:07:45.883Z,96202.80
2018-05-08T16:10:13.319Z,96204.09
2018-05-08T16:12:40.753Z,96207.91
2018-05-08T16:15:08.333Z,96199.75
2018-05-08T16:17:35.921Z,96196.06
2018-05-08T16:20:03.339Z,96206.97
2018-05-08T16:22:30.782Z,96194.26
2018-05-08T16:24:58.194Z,96197.30
2018-05-08T16:27:25.718Z,96197.42
2018-05-08T16:29:53.161Z,96201.25
2018-05-08T16:32:20.596Z,96202.14
2018-05-08T16:34:48.186Z,96205.74
2018-05-08T16:37:15.644Z,96209.57
2018-05-08T16:39:43.144Z,96211.20
2018-05-08T16:42:10.589Z,96202.21
2018-05-08T16:44:38.039Z,96209.34
2018-05-08T16:47:05.572Z,96202.66
2018-05-08T16:49:33.011Z,96203.80
2018-05-08T16:52:00.441Z,96215.61
2018-05-08T16:54:27.896Z,96206.08
2018-05-08T16:56:55.656Z,96210.42
2018-05-08T16:59:23.115Z,96211.39
2018-05-08T17:01:50.577Z,96207.89
2018-05-08T17:04:18.020Z,96209.42
2018-05-08T17:06:45.436Z,96203.77
2018-05-08T17:09:12.902Z,96208.01
2018-05-08T17:11:40.321Z,96200.28
2018-05-08T17:14:08.370Z,96205.52
2018-05-08T17:16:35.807Z,96192.22
2018-05-08T17:19:03.335Z,96194.86
2018-05-08T17:21:30.763Z,96195.03
2018-05-08T17:23:58.183Z,96191.20
2018-05-08T17:26:25.612Z,96193.06
2018-05-08T17:28:53.091Z,96201.19
2018-05-08T17:31:21.985Z,96200.26
2018-05-08T17:33:50.642Z,96200.86
2018-05-08T17:36:18.064Z,96195.73
2018-05-08T17:38:45.542Z,96194.63
2018-05-08T17:41:13.012Z,96196.16
2018-05-08T17:43:40.455Z,96204.09
2018-05-08T17:46:07.928Z,96207.10
2018-05-08T17:48:35.367Z,96206.18
2018-05-08T17:51:02.804Z,96209.11
2018-05-08T17:53:30.259Z,96208.71
2018-05-08T17:55:57.708Z,96212.41
2018-05-08T17:58:26.430Z,96219.50
2018-05-08T18:00:53.861Z,96217.14
2018-05-08T18:03:21.509Z,96219.58
2018-05-08T18:05:48.963Z,96224.89
2018-05-08T18:08:16.488Z,96228.52
2018-05-08T18:10:43.954Z,96233.88
2018-05-08T18:13:11.585Z,96230.05
2018-05-08T18:15:39.020Z,96227.18
2018-05-08T18:18:06.533Z,96234.18
2018-05-08T18:20:33.982Z,96227.91
2018-05-08T18:23:01.498Z,96238.09
2018-05-08T18:25:29.552Z,96237.09
2018-05-08T18:27:57.026Z,96239.27
2018-05-08T18:30:24.427Z,96235.98
2018-05-08T18:32:52.023Z,96237.31
2018-05-08T18:35:19.414Z,96235.37
2018-05-08T18:37:46.975Z,96234.42
2018-05-08T18:40:14.416Z,96226.87
2018-05-08T18:42:41.819Z,96227.03
2018-05-08T18:45:09.286Z,96228.84
2018-05-08T18:47:36.710Z,96231.58
2018-05-08T18:50:04.217Z,96225.06
2018-05-08T18:52:31.660Z,96237.07
2018-05-08T18:54:59.119Z,96230.38
2018-05-08T18:57:26.656Z,96231.41
2018-05-08T18:59:54.062Z,96229.70
2018-05-08T19:02:21.501Z,96228.03
2018-05-08T19:04:48.961Z,96235.37
2018-05-08T19:07:16.400Z,96237.96
2018-05-08T19:09:43.889Z,96234.94
2018-05-08T19:12:11.315Z,96238.37
2018-05-08T19:14:38.797Z,96235.66
2018-05-08T19:17:06.226Z,96236.85
2018-05-08T19:19:39.353Z,96235.58
2018-05-08T19:22:06.790Z,96235.02
2018-05-08T19:24:34.250Z,96239.32
2018-05-08T19:27:01.722Z,96238.50
2018-05-08T19:29:34.790Z,96240.60
2018-05-08T19:32:02.283Z,96251.17
2018-05-08T19:34:35.100Z,96254.71
2018-05-08T19:37:08.082Z,96256.77
2018-05-08T19:39:35.533Z,96276.80
2018-05-08T19:42:02.963Z,96277.23
2018-05-08T19:44:30.387Z,96280.91
2018-05-08T19:46:57.809Z,96282.39
2018-05-08T19:49:25.316Z,96286.81
2018-05-08T19:51:52.760Z,96288.80
2018-05-08T19:54:20.193Z,96293.56
2018-05-08T19:56:47.703Z,96293.34
2018-05-08T19:59:15.086Z,96302.13
2018-05-08T20:01:42.510Z,96298.64
2018-05-08T20:04:09.947Z,96297.48
2018-05-08T20:06:37.404Z,96303.68
2018-05-08T20:09:04.858Z,96308.08
2018-05-08T20:11:32.255Z,96305.55
2018-05-08T20:13:59.717Z,96306.00
2018-05-08T20:16:27.222Z,96303.38
2018-05-08T20:18:54.670Z,96301.66
2018-05-08T20:21:22.082Z,96298.22
2018-05-08T20:23:49.474Z,96302.88
2018-05-08T20:26:16.900Z,96300.16
2018-05-08T20:28:44.368Z,96302.24
2018-05-08T20:31:11.966Z,96302.39
2018-05-08T20:33:39.391Z,96302.66
2018-05-08T20:36:06.947Z,96301.70
2018-05-08T20:38:34.434Z,96296.55
2018-05-08T20:41:01.877Z,96298.50
2018-05-08T20:43:29.300Z,96291.19
2018-05-08T20:45:56.753Z,96284.87
2018-05-08T20:48:24.406Z,96284.30
2018-05-08T20:50:51.841Z,96288.34
2018-05-08T20:53:19.230Z,96283.83
2018-05-08T20:55:46.675Z,96289.97
2018-05-08T20:58:14.154Z,96283.98
2018-05-08T21:00:42.235Z,96282.03
2018-05-08T21:03:09.710Z,96280.96
2018-05-08T21:05:37.116Z,96277.89
2018-05-08T21:08:04.519Z,96280.77
2018-05-08T21:10:31.975Z,96286.29
2018-05-08T21:12:59.428Z,96283.52
2018-05-08T21:15:26.847Z,96291.86
2018-05-08T21:17:54.487Z,96290.39
2018-05-08T21:20:21.950Z,96290.88
2018-05-08T21:22:49.340Z,96285.94
2018-05-08T21:25:16.767Z,96287.72
2018-05-08T21:27:49.688Z,96292.33
2018-05-08T21:30:22.645Z,96289.90
2018-05-08T21:32:50.034Z,96297.36
2018-05-08T21:35:17.459Z,96299.41
2018-05-08T21:37:44.932Z,96297.15
2018-05-08T21:40:12.372Z,96296.48
2018-05-08T21:42:39.790Z,96295.09
2018-05-08T21:45:07.196Z,96289.78
2018-05-08T21:47:34.634Z,96291.26
2018-05-08T21:50:02.091Z,96293.31
2018-05-08T21:52:29.528Z,96297.56
2018-05-08T21:54:56.922Z,96303.15
2018-05-08T21:57:24.406Z,96300.59
2018-05-08T21:59:51.922Z,96296.05
2018-05-08T22:02:19.421Z,96295.45
2018-05-08T22:04:46.821Z,96295.85
2018-05-08T22:07:14.237Z,96292.38
2018-05-08T22:09:41.683Z,96289.68
2018-05-08T22:12:09.211Z,96291.83
2018-05-08T22:14:36.634Z,96287.94
2018-05-08T22:17:04.150Z,96292.08
2018-05-08T22:19:31.546Z,96287.88
2018-05-08T22:21:59.036Z,96298.84
2018-05-08T22:24:26.422Z,96287.80
2018-05-08T22:26:53.909Z,96280.94
2018-05-08T22:29:21.366Z,96280.75
2018-05-08T22:31:48.791Z,96275.69
2018-05-08T22:34:16.223Z,96286.78
2018-05-08T22:36:43.674Z,96280.96
2018-05-08T22:39:11.205Z,96285.05
2018-05-08T22:41:38.640Z,96288.39
2018-05-08T22:44:06.109Z,96292.38
2018-05-08T22:46:33.502Z,96282.55
2018-05-08T22:49:00.941Z,96287.30
2018-05-08T22:51:28.336Z,96295.86
2018-05-08T22:53:55.804Z,96292.98
2018-05-08T22:56:23.225Z,96290.23
2018-05-08T22:58:50.684Z,96289.51
2018-05-08T23:01:18.144Z,96286.88
2018-05-08T23:03:46.432Z,96283.88
2018-05-08T23:06:13.872Z,96282.39
2018-05-08T23:08:41.302Z,96278.98
2018-05-08T23:11:08.735Z,96280.91
2018-05-08T23:13:36.133Z,96288.94
2018-05-08T23:16:03.571Z,96300.91
2018-05-08T23:18:31.023Z,96299.57
2018-05-08T23:20:58.498Z,96299.91
2018-05-08T23:23:25.908Z,96303.39
2018-05-08T23:25:53.350Z,96300.39
2018-05-08T23:28:20.747Z,96296.66
2018-05-08T23:30:48.213Z,96303.23
2018-05-08T23:33:15.670Z,96310.45
2018-05-08T23:35:43.121Z,96311.02
2018-05-08T23:38:10.582Z,96322.30
2018-05-08T23:40:38.016Z,96326.61
2018-05-08T23:43:05.448Z,96336.48
2018-05-08T23:45:32.841Z,96333.83
2018-05-08T23:48:00.261Z,96330.67
2018-05-08T23:50:27.718Z,96335.98
2018-05-08T23:52:55.184Z,96337.64
2018-05-08T23:55:22.639Z,96345.69
2018-05-08T23:57:50.100Z,96348.41
